createdAt,value
2023-02-22T00:02:11.250Z,-13.81
2023-02-22T00:04:39.872Z,-13.78
2023-02-22T00:07:07.957Z,-13.71
2023-02-22T00:09:35.055Z,-13.66
2023-02-22T00:12:02.419Z,-13.70
2023-02-22T00:14:29.545Z,-14.17
2023-02-22T00:16:59.773Z,-14.16
2023-02-22T00:19:28.261Z,-13.84
2023-02-22T00:21:55.557Z,-13.78
2023-02-22T00:24:25.650Z,-14.19
2023-02-22T00:26:55.831Z,-13.87
2023-02-22T00:29:26.366Z,-14.03
2023-02-22T00:31:54.244Z,-13.94
2023-02-22T00:34:23.576Z,-14.27
2023-02-22T00:36:50.802Z,-14.13
2023-02-22T00:39:18.434Z,-13.95
2023-02-22T00:41:45.624Z,-15.18
2023-02-22T00:44:13.045Z,-13.97
2023-02-22T00:46:40.263Z,-14.38
2023-02-22T00:49:07.632Z,-14.23
2023-02-22T00:51:34.919Z,-14.18
2023-02-22T00:54:02.243Z,-14.18
2023-02-22T00:56:29.334Z,-13.98
2023-02-22T00:58:56.448Z,-13.99
2023-02-22T01:01:24.439Z,-14.38
2023-02-22T01:03:51.805Z,-14.10
2023-02-22T01:06:19.653Z,-14.03
2023-02-22T01:08:48.073Z,-14.01
2023-02-22T01:11:17.091Z,-14.05
2023-02-22T01:13:45.528Z,-14.18
2023-02-22T01:16:12.995Z,-14.97
2023-02-22T01:18:40.390Z,-14.13
2023-02-22T01:21:08.735Z,-14.52
2023-02-22T01:23:35.859Z,-14.47
2023-02-22T01:26:06.226Z,-14.18
2023-02-22T01:28:34.443Z,-14.41
2023-02-22T01:31:03.433Z,-14.61
2023-02-22T01:33:31.471Z,-14.82
2023-02-22T01:35:59.843Z,-14.24
2023-02-22T01:38:27.875Z,-14.15
2023-02-22T01:40:55.207Z,-14.68
2023-02-22T01:43:29.947Z,-14.23
2023-02-22T01:46:02.118Z,-14.21
2023-02-22T01:48:41.752Z,-14.19
2023-02-22T01:51:28.584Z,-14.65
2023-02-22T01:54:00.389Z,-14.20
2023-02-22T01:56:29.889Z,-14.35
2023-02-22T01:59:02.335Z,-14.27
2023-02-22T02:01:30.533Z,-14.67
2023-02-22T02:04:00.384Z,-14.31
2023-02-22T02:06:31.490Z,-14.26
2023-02-22T02:09:44.929Z,-14.30
2023-02-22T02:12:14.336Z,-14.26
2023-02-22T02:14:44.088Z,-14.84
2023-02-22T02:17:15.506Z,-14.61
2023-02-22T02:20:07.321Z,-14.61
2023-02-22T02:22:46.513Z,-14.23
2023-02-22T02:25:35.124Z,-14.20
2023-02-22T02:28:40.912Z,-14.23
2023-02-22T02:31:39.486Z,-14.18
2023-02-22T02:34:29.763Z,-14.27
2023-02-22T02:37:15.572Z,-14.25
2023-02-22T02:39:56.838Z,-14.40
2023-02-22T02:42:33.716Z,-14.57
2023-02-22T02:45:12.623Z,-14.61
2023-02-22T02:47:48.233Z,-14.22
2023-02-22T02:50:27.842Z,-14.22
2023-02-22T02:52:58.961Z,-14.41
2023-02-22T02:55:30.723Z,-14.33
2023-02-22T02:57:57.809Z,-14.45
2023-02-22T03:00:29.957Z,-14.50
2023-02-22T03:03:24.111Z,-14.28
2023-02-22T03:06:09.462Z,-14.29
2023-02-22T03:08:56.542Z,-14.77
2023-02-22T03:11:28.908Z,-14.33
2023-02-22T03:14:16.185Z,-14.29
2023-02-22T03:17:04.968Z,-14.24
2023-02-22T03:19:39.792Z,-14.67
2023-02-22T03:22:09.210Z,-14.36
2023-02-22T03:24:54.889Z,-14.37
2023-02-22T03:27:29.144Z,-14.36
2023-02-22T03:30:05.093Z,-14.96
2023-02-22T03:32:38.578Z,-14.52
2023-02-22T03:35:14.120Z,-14.69
2023-02-22T03:37:47.214Z,-15.14
2023-02-22T03:40:26.264Z,-14.54
2023-02-22T03:43:06.914Z,-14.50
2023-02-22T03:45:40.889Z,-14.78
2023-02-22T03:48:27.787Z,-14.31
2023-02-22T03:50:55.182Z,-14.83
2023-02-22T03:53:23.420Z,-14.30
2023-02-22T03:55:55.790Z,-14.37
2023-02-22T03:58:28.091Z,-14.36
2023-02-22T04:00:55.928Z,-14.66
2023-02-22T04:03:24.041Z,-14.57
2023-02-22T04:05:52.874Z,-14.42
2023-02-22T04:08:21.438Z,-14.77
2023-02-22T04:10:48.788Z,-14.31
2023-02-22T04:13:18.709Z,-14.32
2023-02-22T04:15:48.544Z,-14.41
2023-02-22T04:18:16.510Z,-14.38
2023-02-22T04:20:46.269Z,-14.57
2023-02-22T04:23:21.544Z,-14.67
2023-02-22T04:25:49.382Z,-14.92
2023-02-22T04:28:19.783Z,-14.69
2023-02-22T04:30:52.807Z,-14.99
2023-02-22T04:33:20.439Z,-14.75
2023-02-22T04:35:47.797Z,-15.02
2023-02-22T04:38:15.531Z,-14.69
2023-02-22T04:40:42.662Z,-14.57
2023-02-22T04:43:09.956Z,-15.05
2023-02-22T04:45:37.285Z,-14.91
2023-02-22T04:48:06.238Z,-14.65
2023-02-22T04:50:33.521Z,-14.99
2023-02-22T04:53:00.664Z,-15.10
2023-02-22T04:55:30.548Z,-14.71
2023-02-22T04:57:58.060Z,-14.59
2023-02-22T05:00:25.536Z,-14.57
2023-02-22T05:02:57.335Z,-14.56
2023-02-22T05:05:24.640Z,-14.53
2023-02-22T05:07:52.014Z,-14.47
2023-02-22T05:10:20.059Z,-15.04
2023-02-22T05:12:47.341Z,-14.44
2023-02-22T05:15:20.445Z,-14.46
2023-02-22T05:17:48.301Z,-15.07
2023-02-22T05:20:28.955Z,-14.79
2023-02-22T05:23:00.591Z,-14.54
2023-02-22T05:25:28.492Z,-14.36
2023-02-22T05:27:58.111Z,-14.84
2023-02-22T05:30:30.611Z,-14.38
2023-02-22T05:32:59.554Z,-14.26
2023-02-22T05:35:27.819Z,-14.30
2023-02-22T05:37:55.555Z,-14.38
2023-02-22T05:40:25.527Z,-14.31
2023-02-22T05:42:53.800Z,-14.21
2023-02-22T05:45:23.169Z,-14.18
2023-02-22T05:47:50.898Z,-14.16
2023-02-22T05:50:19.915Z,-14.09
2023-02-22T05:52:49.033Z,-14.94
2023-02-22T05:55:19.006Z,-14.33
2023-02-22T05:57:47.182Z,-14.05
2023-02-22T06:00:23.406Z,-14.27
2023-02-22T06:03:00.101Z,-13.75
2023-02-22T06:05:30.477Z,-13.70
2023-02-22T06:07:58.979Z,-13.61
2023-02-22T06:10:27.294Z,-13.68
2023-02-22T06:12:55.124Z,-13.57
2023-02-22T06:15:24.132Z,-13.43
2023-02-22T06:17:51.840Z,-13.45
2023-02-22T06:20:22.836Z,-13.38
2023-02-22T06:22:54.211Z,-13.39
2023-02-22T06:25:24.520Z,-13.71
2023-02-22T06:27:51.726Z,-13.23
2023-02-22T06:30:21.538Z,-13.53
2023-02-22T06:32:48.737Z,-12.97
2023-02-22T06:35:16.897Z,-13.30
2023-02-22T06:37:44.026Z,-12.72
2023-02-22T06:40:11.637Z,-12.77
2023-02-22T06:42:39.511Z,-12.89
2023-02-22T06:45:07.622Z,-13.01
2023-02-22T06:47:39.787Z,-12.45
2023-02-22T06:50:08.089Z,-12.77
2023-02-22T06:52:35.247Z,-12.33
2023-02-22T06:55:02.383Z,-12.35
2023-02-22T06:57:30.454Z,-12.38
2023-02-22T06:59:57.585Z,-12.72
2023-02-22T07:02:24.763Z,-12.43
2023-02-22T07:04:51.908Z,-11.93
2023-02-22T07:07:19.008Z,-11.90
2023-02-22T07:09:48.034Z,-11.79
2023-02-22T07:12:15.165Z,-12.08
2023-02-22T07:14:42.901Z,-11.96
2023-02-22T07:17:10.133Z,-11.68
2023-02-22T07:19:37.184Z,-10.65
2023-02-22T07:22:04.326Z,-9.38
2023-02-22T07:24:31.492Z,-8.86
2023-02-22T07:27:02.053Z,-8.27
2023-02-22T07:29:29.276Z,-7.67
2023-02-22T07:31:57.852Z,-7.52
2023-02-22T07:34:25.017Z,-8.74
2023-02-22T07:36:52.155Z,-8.42
2023-02-22T07:39:19.381Z,-8.34
2023-02-22T07:41:46.684Z,-8.13
2023-02-22T07:44:24.024Z,-8.40
2023-02-22T07:46:51.098Z,-8.21
2023-02-22T07:49:18.661Z,-8.40
2023-02-22T07:51:45.956Z,-8.35
2023-02-22T07:54:13.154Z,-8.50
2023-02-22T07:56:49.556Z,-8.98
2023-02-22T07:59:16.913Z,-8.33
2023-02-22T08:01:44.451Z,-8.42
2023-02-22T08:04:11.633Z,-8.52
2023-02-22T08:06:38.898Z,-8.28
2023-02-22T08:09:06.148Z,-8.18
2023-02-22T08:11:33.455Z,-7.52
2023-02-22T08:14:00.656Z,-7.06
2023-02-22T08:16:28.018Z,-6.40
2023-02-22T08:18:55.226Z,-6.15
2023-02-22T08:21:22.431Z,-6.16
2023-02-22T08:23:54.555Z,-5.89
2023-02-22T08:26:21.759Z,-5.69
2023-02-22T08:28:49.098Z,-4.85
2023-02-22T08:31:16.555Z,-4.35
2023-02-22T08:33:47.132Z,-3.97
2023-02-22T08:36:14.232Z,-3.61
2023-02-22T08:38:41.591Z,-2.73
2023-02-22T08:41:11.306Z,-1.76
2023-02-22T08:43:38.506Z,-0.69
2023-02-22T08:46:05.660Z,-0.29
2023-02-22T08:48:32.881Z,0.39
2023-02-22T08:51:00.101Z,0.64
2023-02-22T08:53:27.365Z,1.16
2023-02-22T08:55:56.877Z,1.36
2023-02-22T08:58:23.964Z,1.56
2023-02-22T09:00:51.174Z,2.66
2023-02-22T09:03:18.504Z,2.90
2023-02-22T09:05:45.789Z,2.50
2023-02-22T09:08:13.106Z,2.67
2023-02-22T09:10:40.895Z,2.41
2023-02-22T09:13:08.142Z,2.69
2023-02-22T09:15:36.550Z,2.34
2023-02-22T09:18:05.817Z,2.35
2023-02-22T09:20:32.902Z,3.55
2023-02-22T09:23:03.614Z,3.15
2023-02-22T09:25:31.097Z,2.01
2023-02-22T09:27:58.530Z,1.04
2023-02-22T09:30:34.396Z,0.04
2023-02-22T09:33:04.449Z,0.74
2023-02-22T09:35:31.865Z,0.98
2023-02-22T09:38:00.542Z,0.20
2023-02-22T09:40:31.040Z,0.15
2023-02-22T09:43:27.838Z,-0.33
2023-02-22T09:46:13.718Z,-1.30
2023-02-22T09:49:02.508Z,-0.61
2023-02-22T09:51:38.052Z,-0.55
2023-02-22T09:54:14.784Z,-0.79
2023-02-22T09:56:44.342Z,-0.94
2023-02-22T09:59:15.783Z,-0.47
2023-02-22T10:01:50.317Z,-0.71
2023-02-22T10:04:38.872Z,-0.73
2023-02-22T10:07:18.496Z,-0.72
2023-02-22T10:09:48.594Z,-1.39
2023-02-22T10:12:30.347Z,-0.40
2023-02-22T10:15:42.609Z,0.03
2023-02-22T10:18:31.215Z,-0.29
2023-02-22T10:21:14.563Z,-0.58
2023-02-22T10:24:17.258Z,-1.83
2023-02-22T10:26:47.081Z,-1.98
2023-02-22T10:29:29.830Z,-2.25
2023-02-22T10:32:00.766Z,-2.18
2023-02-22T10:34:36.643Z,-2.49
2023-02-22T10:37:34.825Z,-2.36
2023-02-22T10:40:23.143Z,-3.16
2023-02-22T10:42:50.909Z,-2.97
2023-02-22T10:45:30.073Z,-3.09
2023-02-22T10:47:59.877Z,-3.04
2023-02-22T10:50:31.257Z,-3.37
2023-02-22T10:52:58.400Z,-3.15
2023-02-22T10:55:25.860Z,-3.45
2023-02-22T10:58:02.367Z,-3.18
2023-02-22T11:00:33.301Z,-3.12
2023-02-22T11:03:03.009Z,-2.75
2023-02-22T11:05:37.021Z,-2.28
2023-02-22T11:08:16.250Z,-1.88
2023-02-22T11:10:43.644Z,-1.82
2023-02-22T11:13:33.702Z,-2.21
2023-02-22T11:16:17.568Z,-2.32
2023-02-22T11:18:44.793Z,-2.38
2023-02-22T11:21:14.163Z,-2.92
2023-02-22T11:23:45.077Z,-2.42
2023-02-22T11:26:17.693Z,-1.87
2023-02-22T11:28:49.824Z,-1.86
2023-02-22T11:31:21.129Z,-2.19
2023-02-22T11:34:00.063Z,-2.02
2023-02-22T11:36:40.623Z,-1.81
2023-02-22T11:39:27.228Z,-2.09
2023-02-22T11:41:56.753Z,-2.39
2023-02-22T11:44:28.876Z,-2.95
2023-02-22T11:47:01.699Z,-3.79
2023-02-22T11:49:38.599Z,-3.88
2023-02-22T11:52:27.014Z,-4.13
2023-02-22T11:55:43.148Z,-4.45
2023-02-22T11:58:45.876Z,-4.91
2023-02-22T12:01:51.626Z,-5.29
2023-02-22T12:04:55.840Z,-5.69
2023-02-22T12:07:56.851Z,-6.26
2023-02-22T12:10:55.620Z,-6.37
2023-02-22T12:13:37.780Z,-7.28
2023-02-22T12:16:27.193Z,-6.82
2023-02-22T12:19:10.473Z,-7.05
2023-02-22T12:21:42.944Z,-6.82
2023-02-22T12:24:16.629Z,-7.32
2023-02-22T12:26:59.019Z,-7.15
2023-02-22T12:29:47.448Z,-7.19
2023-02-22T12:32:33.512Z,-7.58
2023-02-22T12:35:26.765Z,-7.30
2023-02-22T12:38:04.992Z,-7.32
2023-02-22T12:41:01.831Z,-7.28
2023-02-22T12:43:36.664Z,-7.47
2023-02-22T12:46:13.874Z,-7.42
2023-02-22T12:48:48.112Z,-7.45
2023-02-22T12:51:31.928Z,-7.57
2023-02-22T12:54:02.049Z,-7.75
2023-02-22T12:56:36.601Z,-7.76
2023-02-22T12:59:15.478Z,-8.02
2023-02-22T13:01:46.688Z,-7.94
2023-02-22T13:04:20.924Z,-8.15
2023-02-22T13:07:06.075Z,-7.91
2023-02-22T13:10:18.983Z,-7.92
2023-02-22T13:13:15.675Z,-7.93
2023-02-22T13:15:57.831Z,-7.96
2023-02-22T13:18:48.903Z,-8.14
2023-02-22T13:21:34.450Z,-8.24
2023-02-22T13:24:16.127Z,-8.87
2023-02-22T13:26:52.308Z,-8.46
2023-02-22T13:29:38.022Z,-8.55
2023-02-22T13:32:20.949Z,-8.74
2023-02-22T13:35:20.391Z,-8.50
2023-02-22T13:37:56.497Z,-8.59
2023-02-22T13:40:50.078Z,-8.63
2023-02-22T13:43:43.777Z,-8.91
2023-02-22T13:46:44.990Z,-8.76
2023-02-22T13:49:39.849Z,-8.79
2023-02-22T13:52:12.517Z,-8.83
2023-02-22T13:54:48.739Z,-8.82
2023-02-22T13:57:37.059Z,-8.86
2023-02-22T14:00:16.637Z,-9.23
2023-02-22T14:03:27.086Z,-9.01
2023-02-22T14:05:57.376Z,-9.14
2023-02-22T14:08:31.748Z,-8.99
2023-02-22T14:11:00.994Z,-9.16
2023-02-22T14:13:30.790Z,-9.51
2023-02-22T14:16:00.995Z,-9.00
2023-02-22T14:18:43.687Z,-9.34
2023-02-22T14:21:21.140Z,-9.81
2023-02-22T14:23:53.425Z,-9.14
2023-02-22T14:26:31.422Z,-9.16
2023-02-22T14:29:09.275Z,-9.25
2023-02-22T14:31:51.093Z,-9.25
2023-02-22T14:34:20.084Z,-9.25
2023-02-22T14:37:17.471Z,-9.27
2023-02-22T14:39:51.220Z,-9.74
2023-02-22T14:42:21.599Z,-9.37
2023-02-22T14:44:49.040Z,-9.43
2023-02-22T14:47:32.268Z,-9.42
2023-02-22T14:50:13.132Z,-9.92
2023-02-22T14:52:42.855Z,-9.81
2023-02-22T14:55:23.987Z,-9.57
2023-02-22T14:58:08.894Z,-9.53
2023-02-22T15:00:47.578Z,-9.67
2023-02-22T15:03:37.474Z,-9.83
2023-02-22T15:06:16.313Z,-9.76
2023-02-22T15:08:50.900Z,-9.65
2023-02-22T15:11:27.974Z,-10.52
2023-02-22T15:13:55.232Z,-9.94
2023-02-22T15:16:23.959Z,-9.77
2023-02-22T15:18:55.210Z,-10.28
2023-02-22T15:21:27.149Z,-9.84
2023-02-22T15:24:03.816Z,-9.72
2023-02-22T15:26:51.949Z,-9.81
2023-02-22T15:29:44.689Z,-10.24
2023-02-22T15:32:30.480Z,-9.76
2023-02-22T15:35:29.282Z,-9.70
2023-02-22T15:38:16.594Z,-9.80
2023-02-22T15:40:45.368Z,-9.70
2023-02-22T15:43:24.638Z,-9.83
2023-02-22T15:45:52.513Z,-9.79
2023-02-22T15:48:20.266Z,-9.89
2023-02-22T15:51:10.834Z,-10.26
2023-02-22T15:53:49.841Z,-10.00
2023-02-22T15:56:27.082Z,-9.85
2023-02-22T15:59:00.796Z,-9.84
2023-02-22T16:01:57.059Z,-10.07
2023-02-22T16:04:31.672Z,-9.97
2023-02-22T16:07:17.334Z,-10.05
2023-02-22T16:09:51.987Z,-9.89
2023-02-22T16:12:22.113Z,-10.01
2023-02-22T16:14:50.410Z,-9.94
2023-02-22T16:17:35.886Z,-9.99
2023-02-22T16:20:25.092Z,-9.87
2023-02-22T16:22:52.370Z,-10.23
2023-02-22T16:25:19.445Z,-10.38
2023-02-22T16:28:34.197Z,-9.93
2023-02-22T16:31:02.088Z,-9.94
2023-02-22T16:33:34.149Z,-9.99
2023-02-22T16:36:06.534Z,-9.99
2023-02-22T16:38:38.547Z,-10.11
2023-02-22T16:41:07.717Z,-10.04
2023-02-22T16:43:36.504Z,-9.95
2023-02-22T16:46:07.087Z,-10.21
2023-02-22T16:48:38.480Z,-10.21
2023-02-22T16:51:27.091Z,-10.21
2023-02-22T16:53:56.088Z,-10.07
2023-02-22T16:56:30.895Z,-10.39
2023-02-22T16:59:04.200Z,-10.19
2023-02-22T17:01:35.308Z,-10.08
2023-02-22T17:04:03.025Z,-10.01
2023-02-22T17:06:30.250Z,-10.11
2023-02-22T17:08:57.352Z,-9.99
2023-02-22T17:11:24.644Z,-10.46
2023-02-22T17:13:52.084Z,-10.12
2023-02-22T17:16:19.560Z,-10.09
2023-02-22T17:18:47.023Z,-10.06
2023-02-22T17:21:14.936Z,-10.21
2023-02-22T17:23:44.507Z,-10.07
2023-02-22T17:26:16.302Z,-10.07
2023-02-22T17:28:44.355Z,-10.09
2023-02-22T17:31:21.168Z,-10.17
2023-02-22T17:33:48.720Z,-10.06
2023-02-22T17:36:16.301Z,-10.09
2023-02-22T17:38:44.004Z,-10.30
2023-02-22T17:41:11.293Z,-10.24
2023-02-22T17:43:38.496Z,-10.45
2023-02-22T17:46:08.196Z,-10.61
2023-02-22T17:48:35.682Z,-10.38
2023-02-22T17:51:07.883Z,-10.32
2023-02-22T17:53:35.748Z,-10.14
2023-02-22T17:56:16.863Z,-10.28
2023-02-22T17:58:50.482Z,-10.20
2023-02-22T18:01:25.145Z,-10.20
2023-02-22T18:03:53.539Z,-10.23
2023-02-22T18:06:25.168Z,-10.28
2023-02-22T18:08:55.823Z,-10.21
2023-02-22T18:11:26.568Z,-10.21
2023-02-22T18:13:58.080Z,-10.27
2023-02-22T18:16:26.280Z,-10.51
2023-02-22T18:18:54.729Z,-10.70
2023-02-22T18:21:22.707Z,-10.47
2023-02-22T18:23:49.774Z,-10.30
2023-02-22T18:26:18.719Z,-10.84
2023-02-22T18:28:48.826Z,-10.48
2023-02-22T18:31:20.756Z,-10.55
2023-02-22T18:33:51.197Z,-10.35
2023-02-22T18:36:23.702Z,-10.59
2023-02-22T18:38:55.166Z,-10.29
2023-02-22T18:41:27.197Z,-10.32
2023-02-22T18:43:57.759Z,-10.43
2023-02-22T18:46:25.743Z,-10.56
2023-02-22T18:48:54.902Z,-10.42
2023-02-22T18:51:23.313Z,-10.45
2023-02-22T18:53:55.121Z,-10.81
2023-02-22T18:56:22.834Z,-10.43
2023-02-22T18:58:54.788Z,-10.43
2023-02-22T19:01:23.236Z,-10.53
2023-02-22T19:03:52.028Z,-10.62
2023-02-22T19:06:22.212Z,-10.34
2023-02-22T19:08:50.885Z,-10.43
2023-02-22T19:11:23.242Z,-10.52
2023-02-22T19:13:54.170Z,-10.58
2023-02-22T19:16:26.592Z,-10.51
2023-02-22T19:18:57.629Z,-10.62
2023-02-22T19:21:27.097Z,-10.53
2023-02-22T19:24:00.975Z,-10.58
2023-02-22T19:26:29.603Z,-10.70
2023-02-22T19:28:58.865Z,-10.77
2023-02-22T19:31:29.889Z,-10.56
2023-02-22T19:34:04.979Z,-10.78
2023-02-22T19:36:32.790Z,-10.60
2023-02-22T19:39:03.070Z,-10.70
2023-02-22T19:41:31.060Z,-10.68
2023-02-22T19:43:58.782Z,-10.66
2023-02-22T19:46:25.930Z,-10.81
2023-02-22T19:48:55.474Z,-10.72
2023-02-22T19:51:25.720Z,-10.67
2023-02-22T19:53:53.250Z,-10.73
2023-02-22T19:56:27.229Z,-10.75
2023-02-22T19:58:56.643Z,-10.71
2023-02-22T20:01:26.451Z,-11.15
2023-02-22T20:03:59.956Z,-11.16
2023-02-22T20:06:30.005Z,-10.77
2023-02-22T20:08:57.920Z,-10.77
2023-02-22T20:11:25.586Z,-10.77
2023-02-22T20:13:55.677Z,-10.83
2023-02-22T20:16:23.826Z,-10.76
2023-02-22T20:18:51.468Z,-11.26
2023-02-22T20:21:27.441Z,-10.96
2023-02-22T20:23:57.391Z,-10.83
2023-02-22T20:26:26.235Z,-11.59
2023-02-22T20:28:53.869Z,-10.98
2023-02-22T20:31:21.727Z,-10.91
2023-02-22T20:33:56.889Z,-10.85
2023-02-22T20:36:25.390Z,-10.92
2023-02-22T20:38:57.776Z,-10.95
2023-02-22T20:41:31.689Z,-10.86
2023-02-22T20:44:00.616Z,-11.40
2023-02-22T20:46:31.793Z,-10.87
2023-02-22T20:49:01.518Z,-10.88
2023-02-22T20:51:29.737Z,-10.93
2023-02-22T20:54:00.638Z,-10.89
2023-02-22T20:56:30.526Z,-11.13
2023-02-22T20:59:02.261Z,-11.07
2023-02-22T21:01:30.173Z,-10.95
2023-02-22T21:04:02.309Z,-10.94
2023-02-22T21:06:29.917Z,-11.21
2023-02-22T21:09:00.082Z,-10.97
2023-02-22T21:11:30.811Z,-10.93
2023-02-22T21:13:58.221Z,-10.96
2023-02-22T21:16:28.463Z,-11.06
2023-02-22T21:19:01.355Z,-11.08
2023-02-22T21:21:29.361Z,-11.64
2023-02-22T21:23:58.025Z,-11.19
2023-02-22T21:26:27.729Z,-11.28
2023-02-22T21:28:57.787Z,-11.13
2023-02-22T21:31:25.752Z,-11.46
2023-02-22T21:33:56.090Z,-11.44
2023-02-22T21:36:26.866Z,-11.25
2023-02-22T21:38:59.353Z,-11.10
2023-02-22T21:41:31.160Z,-11.45
2023-02-22T21:43:59.285Z,-11.11
2023-02-22T21:46:29.190Z,-11.22
2023-02-22T21:48:58.993Z,-11.19
2023-02-22T21:51:32.078Z,-11.11
2023-02-22T21:54:06.267Z,-11.67
2023-02-22T21:56:38.486Z,-11.20
2023-02-22T21:59:11.777Z,-11.18
2023-02-22T22:01:50.640Z,-11.25
2023-02-22T22:04:20.467Z,-11.23
2023-02-22T22:06:51.027Z,-11.22
2023-02-22T22:09:19.060Z,-11.24
2023-02-22T22:11:49.752Z,-11.25
2023-02-22T22:14:18.893Z,-11.33
2023-02-22T22:16:47.845Z,-11.59
2023-02-22T22:19:15.225Z,-11.79
2023-02-22T22:21:42.943Z,-11.42
2023-02-22T22:24:10.915Z,-11.29
2023-02-22T22:26:38.767Z,-11.41
2023-02-22T22:29:06.287Z,-11.34
2023-02-22T22:31:33.458Z,-11.42
2023-02-22T22:34:00.607Z,-11.41
2023-02-22T22:36:28.043Z,-11.54
2023-02-22T22:38:57.752Z,-11.36
2023-02-22T22:41:28.234Z,-11.69
2023-02-22T22:43:56.221Z,-11.99
2023-02-22T22:46:23.539Z,-11.55
2023-02-22T22:48:50.802Z,-11.50
2023-02-22T22:51:21.055Z,-11.68
2023-02-22T22:53:49.935Z,-11.59
2023-02-22T22:56:29.398Z,-11.48
2023-02-22T22:58:59.417Z,-11.60
2023-02-22T23:01:34.345Z,-11.97
2023-02-22T23:04:03.835Z,-11.47
2023-02-22T23:06:33.919Z,-11.46
2023-02-22T23:09:13.368Z,-11.70
2023-02-22T23:11:51.000Z,-11.87
2023-02-22T23:14:22.722Z,-11.66
2023-02-22T23:16:52.762Z,-11.71
2023-02-22T23:19:20.222Z,-11.98
2023-02-22T23:21:49.318Z,-11.54
2023-02-22T23:24:19.478Z,-12.59
2023-02-22T23:26:49.948Z,-12.51
2023-02-22T23:29:19.890Z,-11.71
2023-02-22T23:31:50.861Z,-11.83
2023-02-22T23:34:19.046Z,-12.90
2023-02-22T23:36:46.898Z,-11.77
2023-02-22T23:39:16.469Z,-11.66
2023-02-22T23:41:43.680Z,-11.65
2023-02-22T23:44:14.113Z,-11.81
2023-02-22T23:46:41.411Z,-11.94
2023-02-22T23:49:10.046Z,-11.78
2023-02-22T23:51:39.605Z,-11.75
2023-02-22T23:54:12.325Z,-11.85
2023-02-22T23:56:40.462Z,-11.82
2023-02-22T23:59:12.709Z,-11.74
